createdAt,value
2018-10-19T00:01:02.023Z,9.50
2018-10-19T00:03:30.782Z,9.50
2018-10-19T00:05:59.522Z,9.50
2018-10-19T00:08:28.250Z,9.40
2018-10-19T00:10:57.029Z,9.40
2018-10-19T00:13:25.768Z,9.40
2018-10-19T00:15:54.570Z,9.40
2018-10-19T00:18:23.598Z,9.40
2018-10-19T00:20:53.160Z,9.40
2018-10-19T00:23:21.874Z,9.40
2018-10-19T00:25:50.697Z,9.30
2018-10-19T00:28:19.429Z,9.30
2018-10-19T00:30:48.274Z,9.30
2018-10-19T00:33:17.108Z,9.20
2018-10-19T00:35:45.810Z,9.20
2018-10-19T00:38:14.566Z,9.10
2018-10-19T00:40:43.331Z,9.00
2018-10-19T00:43:12.066Z,9.10
2018-10-19T00:45:47.466Z,9.00
2018-10-19T00:48:20.127Z,9.00
2018-10-19T00:50:48.873Z,8.90
2018-10-19T00:53:17.647Z,8.80
2018-10-19T00:55:46.386Z,8.80
2018-10-19T00:58:15.130Z,8.80
2018-10-19T01:00:43.861Z,8.70
2018-10-19T01:03:12.656Z,8.70
2018-10-19T01:05:41.660Z,8.70
2018-10-19T01:08:10.876Z,8.70
2018-10-19T01:10:39.678Z,8.60
2018-10-19T01:13:08.461Z,8.60
2018-10-19T01:15:37.201Z,8.60
2018-10-19T01:18:05.929Z,8.50
2018-10-19T01:20:34.693Z,8.50
2018-10-19T01:23:04.479Z,8.40
2018-10-19T01:25:33.178Z,8.30
2018-10-19T01:28:01.922Z,8.30
2018-10-19T01:30:30.686Z,8.30
2018-10-19T01:32:59.455Z,8.30
2018-10-19T01:35:28.176Z,8.30
2018-10-19T01:37:57.002Z,8.30
2018-10-19T01:40:25.959Z,8.30
2018-10-19T01:42:54.678Z,8.30
2018-10-19T01:45:23.428Z,8.30
2018-10-19T01:47:52.198Z,8.20
2018-10-19T01:50:20.934Z,8.20
2018-10-19T01:52:49.683Z,8.20
2018-10-19T01:55:18.458Z,8.10
2018-10-19T01:57:47.215Z,8.10
2018-10-19T02:00:15.989Z,8.10
2018-10-19T02:02:44.717Z,8.00
2018-10-19T02:05:13.491Z,8.00
2018-10-19T02:07:42.206Z,7.90
2018-10-19T02:10:10.920Z,7.80
2018-10-19T02:12:39.637Z,7.70
2018-10-19T02:15:08.523Z,7.70
2018-10-19T02:17:37.203Z,7.60
2018-10-19T02:20:06.005Z,7.50
2018-10-19T02:22:34.790Z,7.50
2018-10-19T02:25:03.581Z,7.40
2018-10-19T02:27:32.368Z,7.40
2018-10-19T02:30:01.120Z,7.40
2018-10-19T02:32:29.857Z,7.40
2018-10-19T02:34:58.638Z,7.40
2018-10-19T02:37:27.338Z,7.30
2018-10-19T02:39:56.074Z,7.30
2018-10-19T02:42:24.808Z,7.30
2018-10-19T02:44:54.258Z,7.20
2018-10-19T02:47:22.934Z,7.20
2018-10-19T02:49:52.357Z,7.20
2018-10-19T02:52:21.101Z,7.20
2018-10-19T02:54:49.879Z,7.10
2018-10-19T02:57:18.726Z,7.10
2018-10-19T02:59:47.374Z,7.10
2018-10-19T03:02:16.130Z,7.10
2018-10-19T03:04:44.919Z,7.10
2018-10-19T03:07:13.650Z,7.00
2018-10-19T03:09:42.667Z,7.00
2018-10-19T03:12:11.455Z,7.00
2018-10-19T03:14:40.182Z,7.00
2018-10-19T03:17:08.985Z,6.90
2018-10-19T03:19:37.673Z,6.90
2018-10-19T03:22:06.416Z,6.90
2018-10-19T03:24:35.133Z,6.90
2018-10-19T03:27:04.608Z,6.80
2018-10-19T03:29:33.342Z,6.90
2018-10-19T03:32:02.115Z,6.90
2018-10-19T03:34:32.443Z,6.80
2018-10-19T03:37:01.203Z,6.80
2018-10-19T03:39:29.914Z,6.90
2018-10-19T03:41:58.712Z,6.80
2018-10-19T03:44:27.493Z,6.80
2018-10-19T03:46:56.250Z,6.80
2018-10-19T03:49:24.998Z,6.70
2018-10-19T03:51:53.756Z,6.70
2018-10-19T03:54:22.499Z,6.70
2018-10-19T03:56:51.235Z,6.70
2018-10-19T03:59:20.106Z,6.70
2018-10-19T04:01:48.778Z,6.70
2018-10-19T04:04:17.542Z,6.70
2018-10-19T04:06:46.387Z,6.70
2018-10-19T04:09:15.139Z,6.70
2018-10-19T04:11:44.730Z,6.70
2018-10-19T04:14:20.067Z,6.60
2018-10-19T04:16:48.811Z,6.60
2018-10-19T04:19:17.550Z,6.60
2018-10-19T04:21:46.332Z,6.60
2018-10-19T04:24:15.099Z,6.60
2018-10-19T04:26:43.829Z,6.60
2018-10-19T04:29:12.722Z,6.50
2018-10-19T04:31:41.359Z,6.50
2018-10-19T04:34:10.154Z,6.40
2018-10-19T04:36:38.918Z,6.50
2018-10-19T04:39:08.413Z,6.40
2018-10-19T04:41:37.300Z,6.40
2018-10-19T04:44:05.990Z,6.40
2018-10-19T04:46:34.736Z,6.40
2018-10-19T04:49:04.610Z,6.40
2018-10-19T04:51:33.902Z,6.40
2018-10-19T04:54:02.682Z,6.40
2018-10-19T04:56:31.459Z,6.30
2018-10-19T04:59:00.184Z,6.30
2018-10-19T05:01:28.946Z,6.30
2018-10-19T05:03:57.728Z,6.30
2018-10-19T05:06:26.541Z,6.30
2018-10-19T05:08:55.226Z,6.30
2018-10-19T05:11:23.964Z,6.30
2018-10-19T05:13:52.773Z,6.20
2018-10-19T05:16:21.458Z,6.20
2018-10-19T05:18:50.297Z,6.20
2018-10-19T05:21:18.990Z,6.20
2018-10-19T05:23:47.787Z,6.20
2018-10-19T05:26:16.551Z,6.20
2018-10-19T05:28:46.231Z,6.10
2018-10-19T05:31:14.988Z,6.10
2018-10-19T05:33:44.458Z,6.10
2018-10-19T05:36:13.186Z,6.10
2018-10-19T05:38:41.961Z,6.10
2018-10-19T05:41:10.741Z,6.00
2018-10-19T05:43:39.548Z,6.00
2018-10-19T05:46:08.238Z,6.10
2018-10-19T05:48:37.162Z,6.10
2018-10-19T05:51:05.920Z,6.10
2018-10-19T05:53:34.651Z,6.10
2018-10-19T06:00:56.760Z,6.10
2018-10-19T06:03:26.237Z,6.10
2018-10-19T06:05:55.079Z,6.10
2018-10-19T06:08:23.808Z,6.10
2018-10-19T06:10:52.633Z,6.10
2018-10-19T06:13:21.407Z,6.10
2018-10-19T06:15:50.162Z,6.10
2018-10-19T06:18:18.964Z,6.00
2018-10-19T06:20:47.727Z,6.00
2018-10-19T06:23:16.636Z,6.10
2018-10-19T06:25:45.408Z,6.10
2018-10-19T06:28:14.356Z,6.10
2018-10-19T06:30:43.122Z,6.10
2018-10-19T06:33:11.842Z,6.10
2018-10-19T06:35:40.603Z,6.10
2018-10-19T06:38:09.425Z,6.20
2018-10-19T06:40:38.170Z,6.20
2018-10-19T06:43:06.904Z,6.30
2018-10-19T06:45:35.679Z,6.30
2018-10-19T06:48:05.026Z,6.40
2018-10-19T06:50:33.786Z,6.50
2018-10-19T06:53:03.715Z,6.60
2018-10-19T06:55:32.338Z,6.60
2018-10-19T06:58:01.123Z,6.70
2018-10-19T07:00:29.950Z,6.70
2018-10-19T07:02:58.747Z,6.80
2018-10-19T07:05:27.503Z,6.80
2018-10-19T07:07:56.302Z,6.80
2018-10-19T07:10:25.007Z,6.90
2018-10-19T07:12:53.752Z,6.90
2018-10-19T07:15:22.532Z,6.90
2018-10-19T07:17:51.354Z,7.00
2018-10-19T07:20:20.129Z,7.00
2018-10-19T07:22:48.961Z,7.10
2018-10-19T07:25:17.735Z,7.10
2018-10-19T07:27:46.552Z,7.20
2018-10-19T07:30:15.326Z,7.20
2018-10-19T07:32:44.112Z,7.30
2018-10-19T07:35:12.935Z,7.40
2018-10-19T07:37:41.703Z,7.50
2018-10-19T07:40:10.464Z,7.60
2018-10-19T07:42:39.266Z,7.70
2018-10-19T07:45:08.095Z,7.70
2018-10-19T07:47:36.977Z,7.90
2018-10-19T07:50:06.503Z,7.90
2018-10-19T07:52:35.387Z,8.10
2018-10-19T07:55:04.691Z,8.10
2018-10-19T07:57:33.487Z,8.20
2018-10-19T08:00:02.314Z,8.30
2018-10-19T08:02:31.088Z,8.40
2018-10-19T08:04:59.905Z,8.50
2018-10-19T08:07:28.674Z,8.70
2018-10-19T08:09:57.523Z,8.80
2018-10-19T08:12:26.350Z,8.90
2018-10-19T08:14:55.124Z,9.00
2018-10-19T08:17:24.028Z,9.10
2018-10-19T08:19:52.778Z,9.20
2018-10-19T08:22:21.503Z,9.40
2018-10-19T08:24:51.475Z,9.60
2018-10-19T08:27:20.258Z,9.70
2018-10-19T08:29:49.043Z,9.90
2018-10-19T08:32:17.945Z,10.00
2018-10-19T08:34:46.786Z,10.10
2018-10-19T08:37:15.663Z,10.30
2018-10-19T08:39:44.375Z,10.40
2018-10-19T08:42:13.234Z,10.50
2018-10-19T08:44:42.025Z,10.60
2018-10-19T08:47:11.748Z,10.80
2018-10-19T08:49:40.390Z,10.90
2018-10-19T08:52:09.151Z,11.00
2018-10-19T08:54:38.041Z,11.10
2018-10-19T08:57:06.826Z,11.10
2018-10-19T08:59:35.602Z,11.20
2018-10-19T09:02:04.734Z,11.30
2018-10-19T09:04:33.516Z,11.40
2018-10-19T09:07:02.283Z,11.40
2018-10-19T09:09:31.038Z,11.50
2018-10-19T09:11:59.864Z,11.50
2018-10-19T09:14:40.006Z,11.60
2018-10-19T09:17:09.159Z,11.70
2018-10-19T09:19:37.866Z,11.80
2018-10-19T09:22:06.658Z,11.80
2018-10-19T09:24:35.422Z,11.90
2018-10-19T09:27:04.556Z,11.90
2018-10-19T09:29:33.429Z,11.90
2018-10-19T09:32:02.088Z,11.80
2018-10-19T09:34:30.921Z,11.90
2018-10-19T09:36:59.708Z,11.90
2018-10-19T09:39:28.557Z,11.90
2018-10-19T09:41:57.338Z,12.00
2018-10-19T09:44:26.135Z,12.00
2018-10-19T09:46:54.907Z,12.00
2018-10-19T09:49:23.739Z,12.10
2018-10-19T09:51:52.466Z,12.10
2018-10-19T09:54:21.335Z,12.30
2018-10-19T09:56:50.120Z,12.30
2018-10-19T09:59:18.886Z,12.30
2018-10-19T10:01:47.699Z,12.40
2018-10-19T10:04:16.513Z,12.50
2018-10-19T10:06:45.284Z,12.60
2018-10-19T10:09:15.386Z,12.70
2018-10-19T10:11:44.143Z,12.70
2018-10-19T10:14:12.996Z,12.70
2018-10-19T10:16:41.740Z,12.60
2018-10-19T10:19:10.531Z,12.70
2018-10-19T10:21:39.257Z,12.80
2018-10-19T10:24:08.231Z,12.90
2018-10-19T10:26:37.058Z,12.90
2018-10-19T10:29:06.344Z,13.00
2018-10-19T10:31:35.457Z,13.10
2018-10-19T10:34:04.662Z,13.20
2018-10-19T10:36:33.458Z,13.30
2018-10-19T10:39:02.459Z,13.50
2018-10-19T10:41:31.115Z,13.50
2018-10-19T10:43:59.871Z,13.70
2018-10-19T10:46:28.630Z,13.80
2018-10-19T10:48:57.429Z,13.70
2018-10-19T10:51:26.182Z,13.80
2018-10-19T10:53:55.000Z,13.90
2018-10-19T10:56:23.758Z,14.00
2018-10-19T10:58:52.563Z,14.10
2018-10-19T11:01:21.340Z,14.30
2018-10-19T11:03:50.134Z,14.30
2018-10-19T11:06:18.990Z,14.30
2018-10-19T11:08:47.734Z,14.40
2018-10-19T11:11:16.579Z,14.40
2018-10-19T11:13:52.068Z,14.60
2018-10-19T11:16:20.812Z,14.70
2018-10-19T11:18:49.547Z,14.90
2018-10-19T11:21:18.803Z,14.90
2018-10-19T11:23:47.547Z,14.90
2018-10-19T11:26:16.354Z,14.90
2018-10-19T11:28:45.143Z,14.90
2018-10-19T11:31:13.969Z,14.90
2018-10-19T11:33:42.702Z,14.90
2018-10-19T11:36:11.442Z,14.90
2018-10-19T11:38:41.130Z,15.00
2018-10-19T11:41:09.866Z,14.90
2018-10-19T11:43:38.623Z,15.00
2018-10-19T11:46:07.467Z,15.00
2018-10-19T11:48:36.179Z,15.00
2018-10-19T11:51:05.156Z,15.10
2018-10-19T11:53:33.919Z,15.20
2018-10-19T11:56:02.703Z,15.20
2018-10-19T11:58:31.504Z,15.10
2018-10-19T12:01:00.394Z,15.00
2018-10-19T12:03:29.071Z,14.90
2018-10-19T12:05:57.818Z,14.70
2018-10-19T12:08:27.159Z,14.70
2018-10-19T12:10:56.734Z,14.60
2018-10-19T12:13:25.527Z,14.70
2018-10-19T12:15:54.401Z,14.60
2018-10-19T12:18:23.203Z,14.50
2018-10-19T12:20:52.041Z,14.40
2018-10-19T12:23:20.803Z,14.40
2018-10-19T12:25:49.648Z,14.30
2018-10-19T12:28:18.430Z,14.40
2018-10-19T12:30:47.240Z,14.50
2018-10-19T12:33:16.206Z,14.50
2018-10-19T12:35:44.850Z,14.50
2018-10-19T12:38:13.659Z,14.30
2018-10-19T12:40:42.391Z,14.20
2018-10-19T12:43:11.181Z,14.20
2018-10-19T12:46:50.238Z,14.30
2018-10-19T12:49:20.347Z,14.40
2018-10-19T12:51:49.066Z,14.60
2018-10-19T12:54:18.714Z,14.70
2018-10-19T12:56:47.391Z,14.90
2018-10-19T12:59:16.220Z,15.10
2018-10-19T13:01:44.948Z,15.30
2018-10-19T13:04:13.721Z,15.50
2018-10-19T13:06:42.507Z,15.60
2018-10-19T13:09:12.558Z,15.60
2018-10-19T13:11:41.312Z,15.60
2018-10-19T13:14:10.084Z,15.40
2018-10-19T13:16:38.856Z,15.30
2018-10-19T13:19:07.683Z,15.30
2018-10-19T13:21:36.386Z,15.20
2018-10-19T13:24:05.504Z,15.10
2018-10-19T13:26:34.795Z,15.00
2018-10-19T13:29:05.039Z,14.80
2018-10-19T13:31:33.835Z,14.70
2018-10-19T13:34:02.886Z,14.50
2018-10-19T13:36:31.658Z,14.30
2018-10-19T13:39:00.453Z,14.20
2018-10-19T13:41:29.252Z,14.10
2018-10-19T13:43:58.009Z,14.10
2018-10-19T13:46:26.762Z,14.00
2018-10-19T13:48:55.523Z,14.00
2018-10-19T13:51:24.290Z,14.00
2018-10-19T13:53:53.023Z,14.00
2018-10-19T13:56:21.783Z,14.00
2018-10-19T13:58:50.579Z,14.00
2018-10-19T14:01:19.329Z,14.00
2018-10-19T14:03:48.147Z,14.00
2018-10-19T14:06:17.010Z,14.00
2018-10-19T14:08:45.779Z,14.00
2018-10-19T14:11:14.586Z,14.00
2018-10-19T14:13:43.276Z,14.00
2018-10-19T14:16:12.053Z,14.00
2018-10-19T14:18:40.805Z,14.10
2018-10-19T14:21:09.687Z,14.10
2018-10-19T14:23:38.363Z,14.10
2018-10-19T14:26:07.151Z,14.10
2018-10-19T14:28:35.945Z,14.10
2018-10-19T14:31:04.698Z,14.30
2018-10-19T14:33:33.692Z,14.50
2018-10-19T14:36:02.290Z,14.60
2018-10-19T14:38:31.104Z,14.70
2018-10-19T14:40:59.925Z,14.70
2018-10-19T14:43:28.618Z,14.80
2018-10-19T14:45:57.389Z,14.90
2018-10-19T14:48:26.146Z,14.90
2018-10-19T14:50:54.958Z,14.80
2018-10-19T14:53:23.687Z,14.80
2018-10-19T14:55:52.435Z,14.70
2018-10-19T14:58:21.184Z,14.50
2018-10-19T15:00:49.968Z,14.40
2018-10-19T15:03:18.760Z,14.40
2018-10-19T15:05:47.585Z,14.20
2018-10-19T15:08:16.376Z,14.20
2018-10-19T15:10:45.674Z,14.10
2018-10-19T15:13:14.223Z,14.00
2018-10-19T15:15:43.144Z,14.00
2018-10-19T15:18:11.887Z,13.90
2018-10-19T15:20:40.690Z,13.90
2018-10-19T15:23:09.507Z,13.80
2018-10-19T15:25:38.307Z,13.70
2018-10-19T15:28:07.188Z,13.70
2018-10-19T15:30:36.827Z,13.60
2018-10-19T15:33:05.943Z,13.60
2018-10-19T15:35:34.777Z,13.50
2018-10-19T15:38:03.532Z,13.40
2018-10-19T15:40:32.293Z,13.30
2018-10-19T15:43:01.139Z,13.20
2018-10-19T15:45:30.218Z,13.10
2018-10-19T15:47:59.147Z,13.00
2018-10-19T15:50:27.936Z,12.80
2018-10-19T15:52:56.794Z,12.70
2018-10-19T15:55:25.636Z,12.60
2018-10-19T15:57:54.495Z,12.60
2018-10-19T16:00:23.355Z,12.50
2018-10-19T16:02:52.108Z,12.50
2018-10-19T16:05:20.862Z,12.50
2018-10-19T16:07:49.666Z,12.50
2018-10-19T16:10:18.480Z,12.50
2018-10-19T16:12:47.210Z,12.50
2018-10-19T16:15:16.043Z,12.50
2018-10-19T16:17:45.274Z,12.50
2018-10-19T16:20:14.218Z,12.50
2018-10-19T16:22:43.030Z,12.40
2018-10-19T16:25:11.912Z,12.30
2018-10-19T16:27:40.721Z,12.20
2018-10-19T16:30:10.689Z,12.10
2018-10-19T16:32:40.018Z,12.00
2018-10-19T16:35:09.911Z,12.00
2018-10-19T16:37:38.810Z,11.80
2018-10-19T16:40:07.604Z,11.70
2018-10-19T16:42:36.724Z,11.60
2018-10-19T16:45:06.493Z,11.60
2018-10-19T16:47:35.206Z,11.50
2018-10-19T16:50:04.651Z,11.50
2018-10-19T16:52:33.471Z,11.40
2018-10-19T16:55:02.336Z,11.40
2018-10-19T16:57:31.483Z,11.40
2018-10-19T17:00:00.248Z,11.40
2018-10-19T17:02:29.326Z,11.40
2018-10-19T17:04:58.502Z,11.40
2018-10-19T17:07:27.151Z,11.40
2018-10-19T17:09:55.971Z,11.50
2018-10-19T17:12:24.786Z,11.50
2018-10-19T17:14:53.642Z,11.50
2018-10-19T17:17:22.546Z,11.50
2018-10-19T17:19:51.316Z,11.40
2018-10-19T17:22:20.081Z,11.30
2018-10-19T17:24:48.850Z,11.20
2018-10-19T17:27:17.724Z,11.10
2018-10-19T17:29:46.622Z,11.00
2018-10-19T17:32:15.419Z,11.00
2018-10-19T17:34:44.202Z,10.90
2018-10-19T17:37:13.084Z,10.80
2018-10-19T17:39:41.833Z,10.70
2018-10-19T17:42:10.693Z,10.50
2018-10-19T17:44:39.445Z,10.40
2018-10-19T17:47:09.538Z,10.30
2018-10-19T17:49:38.584Z,10.20
2018-10-19T17:52:07.592Z,10.10
2018-10-19T17:54:36.408Z,10.00
2018-10-19T17:57:05.367Z,9.90
2018-10-19T17:59:34.131Z,9.80
2018-10-19T18:02:02.895Z,9.70
2018-10-19T18:04:31.780Z,9.70
2018-10-19T18:07:00.506Z,9.60
2018-10-19T18:09:29.404Z,9.50
2018-10-19T18:11:58.146Z,9.50
2018-10-19T18:14:26.924Z,9.50
2018-10-19T18:16:55.718Z,9.50
2018-10-19T18:19:24.483Z,9.40
2018-10-19T18:21:53.677Z,9.40
2018-10-19T18:24:22.203Z,9.30
2018-10-19T18:26:50.970Z,9.30
2018-10-19T18:29:19.730Z,9.20
2018-10-19T18:31:48.480Z,9.20
2018-10-19T18:34:17.275Z,9.20
2018-10-19T18:36:46.010Z,9.20
2018-10-19T18:39:14.847Z,9.20
2018-10-19T18:41:44.279Z,9.10
2018-10-19T18:44:13.024Z,9.10
2018-10-19T18:46:41.802Z,9.10
2018-10-19T18:49:10.584Z,9.10
2018-10-19T18:51:39.337Z,9.10
2018-10-19T18:54:08.167Z,9.10
2018-10-19T18:56:36.950Z,9.10
2018-10-19T18:59:05.689Z,9.10
2018-10-19T19:01:34.467Z,9.10
2018-10-19T19:04:04.116Z,9.10
2018-10-19T19:06:32.910Z,9.00
2018-10-19T19:09:01.693Z,9.00
2018-10-19T19:11:30.494Z,9.00
2018-10-19T19:13:59.315Z,8.90
2018-10-19T19:16:30.068Z,8.90
2018-10-19T19:18:58.865Z,8.90
2018-10-19T19:21:27.638Z,8.80
2018-10-19T19:24:01.802Z,8.80
2018-10-19T19:26:30.574Z,8.70
2018-10-19T19:28:59.390Z,8.70
2018-10-19T19:31:28.230Z,8.60
2018-10-19T19:34:02.564Z,8.50
2018-10-19T19:36:31.284Z,8.40
2018-10-19T19:39:00.703Z,8.30
2018-10-19T19:41:34.712Z,8.20
2018-10-19T19:44:04.176Z,8.20
2018-10-19T19:46:32.896Z,8.10
2018-10-19T19:49:07.219Z,8.00
2018-10-19T19:51:35.883Z,8.00
2018-10-19T19:54:04.969Z,8.00
2018-10-19T19:56:33.711Z,7.90
2018-10-19T19:59:02.656Z,7.80
2018-10-19T20:01:31.323Z,7.70
2018-10-19T20:04:00.096Z,7.70
2018-10-19T20:06:28.834Z,7.60
2018-10-19T20:08:57.566Z,7.60
2018-10-19T20:11:26.786Z,7.50
2018-10-19T20:13:55.592Z,7.40
2018-10-19T20:16:24.338Z,7.40
2018-10-19T20:18:53.074Z,7.40
2018-10-19T20:21:21.839Z,7.40
2018-10-19T20:23:50.860Z,7.40
2018-10-19T20:26:19.674Z,7.30
2018-10-19T20:28:48.378Z,7.30
2018-10-19T20:31:17.186Z,7.30
2018-10-19T20:33:45.928Z,7.30
2018-10-19T20:36:14.803Z,7.30
2018-10-19T20:38:43.606Z,7.30
2018-10-19T20:41:12.555Z,7.20
2018-10-19T20:43:41.251Z,7.20
2018-10-19T20:46:10.014Z,7.20
2018-10-19T20:48:38.816Z,7.20
2018-10-19T20:51:07.642Z,7.20
2018-10-19T20:53:36.533Z,7.20
2018-10-19T20:56:05.423Z,7.20
2018-10-19T20:58:35.159Z,7.20
2018-10-19T21:01:04.622Z,7.30
2018-10-19T21:03:33.366Z,7.30
2018-10-19T21:06:02.147Z,7.20
2018-10-19T21:08:30.936Z,7.20
2018-10-19T21:10:59.663Z,7.10
2018-10-19T21:13:29.379Z,7.20
2018-10-19T21:15:58.122Z,7.20
2018-10-19T21:18:26.900Z,7.30
2018-10-19T21:20:55.662Z,7.30
2018-10-19T21:23:24.483Z,7.30
2018-10-19T21:25:53.265Z,7.30
2018-10-19T21:28:21.992Z,7.30
2018-10-19T21:30:50.726Z,7.30
2018-10-19T21:33:19.467Z,7.20
2018-10-19T21:35:48.201Z,7.10
2018-10-19T21:38:16.977Z,7.10
2018-10-19T21:40:45.783Z,7.10
2018-10-19T21:43:14.562Z,7.00
2018-10-19T21:45:43.315Z,7.00
2018-10-19T21:48:12.062Z,7.00
2018-10-19T21:50:40.818Z,7.00
2018-10-19T21:53:09.744Z,7.10
2018-10-19T21:55:38.367Z,7.10
2018-10-19T21:58:07.138Z,7.10
2018-10-19T22:00:35.945Z,7.10
2018-10-19T22:03:04.926Z,7.00
2018-10-19T22:05:33.688Z,7.00
2018-10-19T22:08:02.439Z,6.90
2018-10-19T22:10:31.207Z,6.90
2018-10-19T22:12:59.987Z,6.80
2018-10-19T22:15:28.687Z,6.70
2018-10-19T22:17:59.019Z,6.70
2018-10-19T22:20:27.759Z,6.60
2018-10-19T22:22:56.580Z,6.60
2018-10-19T22:25:25.270Z,6.50
2018-10-19T22:27:54.036Z,6.50
2018-10-19T22:30:22.794Z,6.50
2018-10-19T22:32:51.543Z,6.50
2018-10-19T22:35:20.276Z,6.50
2018-10-19T22:37:49.067Z,6.50
2018-10-19T22:40:17.815Z,6.50
2018-10-19T22:42:46.546Z,6.50
2018-10-19T22:45:15.346Z,6.50
2018-10-19T22:47:44.083Z,6.50
2018-10-19T22:50:12.861Z,6.40
2018-10-19T22:52:41.598Z,6.40
2018-10-19T22:55:10.393Z,6.40
2018-10-19T22:57:39.061Z,6.30
2018-10-19T23:00:08.160Z,6.30
2018-10-19T23:02:37.036Z,6.20
2018-10-19T23:05:05.910Z,6.20
2018-10-19T23:07:34.622Z,6.20
2018-10-19T23:10:05.391Z,6.20
2018-10-19T23:12:34.115Z,6.20
2018-10-19T23:15:02.845Z,6.30
2018-10-19T23:17:31.570Z,6.30
2018-10-19T23:20:00.313Z,6.40
2018-10-19T23:22:29.082Z,6.40
2018-10-19T23:24:57.863Z,6.40
2018-10-19T23:27:26.610Z,6.40
2018-10-19T23:29:55.342Z,6.40
2018-10-19T23:32:24.093Z,6.30
2018-10-19T23:34:52.895Z,6.40
2018-10-19T23:37:21.589Z,6.40
2018-10-19T23:39:50.409Z,6.40
2018-10-19T23:42:19.171Z,6.40
2018-10-19T23:44:47.903Z,6.40
2018-10-19T23:47:16.782Z,6.40
2018-10-19T23:49:45.682Z,6.40
2018-10-19T23:52:14.440Z,6.30
2018-10-19T23:54:43.218Z,6.30
2018-10-19T23:57:12.966Z,6.20
2018-10-19T23:59:41.797Z,6.20
